sensor_id;sensor_type;location;lat;lon;timestamp;temperature;humidity
3017;DHT22;1518;52.408;13.060;2023-03-08T00:00:21;16.80;58.10
3017;DHT22;1518;52.408;13.060;2023-03-08T00:03:12;16.80;57.40
3017;DHT22;1518;52.408;13.060;2023-03-08T00:06:05;16.90;57.40
3017;DHT22;1518;52.408;13.060;2023-03-08T00:08:54;16.90;57.20
3017;DHT22;1518;52.408;13.060;2023-03-08T00:11:42;16.90;56.90
3017;DHT22;1518;52.408;13.060;2023-03-08T00:14:30;16.90;56.70
3017;DHT22;1518;52.408;13.060;2023-03-08T00:17:18;16.90;56.40
3017;DHT22;1518;52.408;13.060;2023-03-08T00:20:09;16.80;56.30
3017;DHT22;1518;52.408;13.060;2023-03-08T00:22:59;16.90;56.40
3017;DHT22;1518;52.408;13.060;2023-03-08T00:25:50;17.00;72.30
3017;DHT22;1518;52.408;13.060;2023-03-08T00:28:39;16.90;56.30
3017;DHT22;1518;52.408;13.060;2023-03-08T00:31:27;16.70;56.20
3017;DHT22;1518;52.408;13.060;2023-03-08T00:34:16;16.70;56.30
3017;DHT22;1518;52.408;13.060;2023-03-08T00:37:04;16.80;56.40
3017;DHT22;1518;52.408;13.060;2023-03-08T00:39:54;16.80;56.60
3017;DHT22;1518;52.408;13.060;2023-03-08T00:42:42;16.90;56.80
3017;DHT22;1518;52.408;13.060;2023-03-08T00:45:30;16.70;56.70
3017;DHT22;1518;52.408;13.060;2023-03-08T00:48:18;16.70;56.90
3017;DHT22;1518;52.408;13.060;2023-03-08T00:51:06;16.60;57.00
3017;DHT22;1518;52.408;13.060;2023-03-08T00:53:54;16.20;57.70
3017;DHT22;1518;52.408;13.060;2023-03-08T00:56:44;16.50;58.20
3017;DHT22;1518;52.408;13.060;2023-03-08T00:59:32;16.60;58.50
3017;DHT22;1518;52.408;13.060;2023-03-08T01:02:20;16.60;58.50
3017;DHT22;1518;52.408;13.060;2023-03-08T01:05:09;16.70;58.20
3017;DHT22;1518;52.408;13.060;2023-03-08T01:07:57;16.70;58.10
3017;DHT22;1518;52.408;13.060;2023-03-08T01:10:49;16.80;58.00
3017;DHT22;1518;52.408;13.060;2023-03-08T01:13:38;16.80;58.10
3017;DHT22;1518;52.408;13.060;2023-03-08T01:16:28;16.80;57.80
3017;DHT22;1518;52.408;13.060;2023-03-08T01:19:16;16.90;57.40
3017;DHT22;1518;52.408;13.060;2023-03-08T01:22:04;16.90;56.60
3017;DHT22;1518;52.408;13.060;2023-03-08T01:24:52;16.90;56.70
3017;DHT22;1518;52.408;13.060;2023-03-08T01:27:40;16.90;56.70
3017;DHT22;1518;52.408;13.060;2023-03-08T01:30:30;16.90;56.40
3017;DHT22;1518;52.408;13.060;2023-03-08T01:33:18;16.80;56.30
3017;DHT22;1518;52.408;13.060;2023-03-08T01:36:09;16.80;56.20
3017;DHT22;1518;52.408;13.060;2023-03-08T01:38:59;16.70;56.30
3017;DHT22;1518;52.408;13.060;2023-03-08T01:41:48;16.70;56.30
3017;DHT22;1518;52.408;13.060;2023-03-08T01:44:52;16.70;56.40
3017;DHT22;1518;52.408;13.060;2023-03-08T01:47:42;16.70;56.50
3017;DHT22;1518;52.408;13.060;2023-03-08T01:50:30;16.60;56.70
3017;DHT22;1518;52.408;13.060;2023-03-08T01:53:18;16.60;56.80
3017;DHT22;1518;52.408;13.060;2023-03-08T01:56:09;16.60;57.00
3017;DHT22;1518;52.408;13.060;2023-03-08T01:58:59;16.40;58.00
3017;DHT22;1518;52.408;13.060;2023-03-08T02:01:48;16.40;58.40
3017;DHT22;1518;52.408;13.060;2023-03-08T02:04:38;16.70;58.40
3017;DHT22;1518;52.408;13.060;2023-03-08T02:07:26;16.40;58.00
3017;DHT22;1518;52.408;13.060;2023-03-08T02:10:16;16.50;57.50
3017;DHT22;1518;52.408;13.060;2023-03-08T02:13:05;16.50;57.90
3017;DHT22;1518;52.408;13.060;2023-03-08T02:15:55;16.40;57.90
3017;DHT22;1518;52.408;13.060;2023-03-08T02:18:55;16.60;58.40
3017;DHT22;1518;52.408;13.060;2023-03-08T02:21:45;16.70;57.40
3017;DHT22;1518;52.408;13.060;2023-03-08T02:24:34;16.70;56.50
3017;DHT22;1518;52.408;13.060;2023-03-08T02:27:24;16.70;72.50
3017;DHT22;1518;52.408;13.060;2023-03-08T02:30:15;16.70;56.60
3017;DHT22;1518;52.408;13.060;2023-03-08T02:33:09;16.70;56.10
3017;DHT22;1518;52.408;13.060;2023-03-08T02:38:49;16.60;56.30
3017;DHT22;1518;52.408;13.060;2023-03-08T02:41:38;16.60;56.30
3017;DHT22;1518;52.408;13.060;2023-03-08T02:44:26;16.60;56.40
3017;DHT22;1518;52.408;13.060;2023-03-08T02:47:15;16.50;56.50
3017;DHT22;1518;52.408;13.060;2023-03-08T02:50:04;16.50;56.60
3017;DHT22;1518;52.408;13.060;2023-03-08T02:52:52;16.50;56.40
3017;DHT22;1518;52.408;13.060;2023-03-08T02:55:40;16.50;56.80
3017;DHT22;1518;52.408;13.060;2023-03-08T02:58:30;16.40;56.80
3017;DHT22;1518;52.408;13.060;2023-03-08T03:01:18;16.30;58.00
3017;DHT22;1518;52.408;13.060;2023-03-08T03:04:06;16.40;58.20
3017;DHT22;1518;52.408;13.060;2023-03-08T03:06:54;17.60;58.80
3017;DHT22;1518;52.408;13.060;2023-03-08T03:09:42;16.40;58.00
3017;DHT22;1518;52.408;13.060;2023-03-08T03:12:30;16.40;58.10
3017;DHT22;1518;52.408;13.060;2023-03-08T03:15:19;16.40;57.80
3017;DHT22;1518;52.408;13.060;2023-03-08T03:18:08;16.50;57.70
3017;DHT22;1518;52.408;13.060;2023-03-08T03:21:02;16.50;57.40
3017;DHT22;1518;52.408;13.060;2023-03-08T03:23:50;16.60;57.90
3017;DHT22;1518;52.408;13.060;2023-03-08T03:26:38;16.60;56.60
3017;DHT22;1518;52.408;13.060;2023-03-08T03:29:26;16.70;56.50
3017;DHT22;1518;52.408;13.060;2023-03-08T03:32:16;16.60;56.30
3017;DHT22;1518;52.408;13.060;2023-03-08T03:35:05;16.60;56.40
3017;DHT22;1518;52.408;13.060;2023-03-08T03:37:53;16.60;56.40
3017;DHT22;1518;52.408;13.060;2023-03-08T03:40:41;16.50;56.20
3017;DHT22;1518;52.408;13.060;2023-03-08T03:43:29;16.50;56.20
3017;DHT22;1518;52.408;13.060;2023-03-08T03:46:19;16.40;72.80
3017;DHT22;1518;52.408;13.060;2023-03-08T03:49:08;16.50;56.40
3017;DHT22;1518;52.408;13.060;2023-03-08T03:51:57;16.40;56.40
3017;DHT22;1518;52.408;13.060;2023-03-08T03:54:45;16.40;56.40
3017;DHT22;1518;52.408;13.060;2023-03-08T03:57:33;16.40;56.50
3017;DHT22;1518;52.408;13.060;2023-03-08T04:00:21;16.30;56.70
3017;DHT22;1518;52.408;13.060;2023-03-08T04:03:09;16.20;57.10
3017;DHT22;1518;52.408;13.060;2023-03-08T04:06:06;16.20;58.00
3017;DHT22;1518;52.408;13.060;2023-03-08T04:08:56;16.20;58.00
3017;DHT22;1518;52.408;13.060;2023-03-08T04:11:44;16.30;58.20
3017;DHT22;1518;52.408;13.060;2023-03-08T04:14:32;16.30;58.00
3017;DHT22;1518;52.408;13.060;2023-03-08T04:17:20;16.40;58.10
3017;DHT22;1518;52.408;13.060;2023-03-08T04:20:10;16.40;57.80
3017;DHT22;1518;52.408;13.060;2023-03-08T04:23:01;16.40;57.90
3017;DHT22;1518;52.408;13.060;2023-03-08T04:25:49;16.50;58.00
3017;DHT22;1518;52.408;13.060;2023-03-08T04:28:37;16.50;57.90
3017;DHT22;1518;52.408;13.060;2023-03-08T04:31:27;16.50;57.50
3017;DHT22;1518;52.408;13.060;2023-03-08T04:34:15;16.60;58.00
3017;DHT22;1518;52.408;13.060;2023-03-08T04:37:04;16.60;57.40
3017;DHT22;1518;52.408;13.060;2023-03-08T04:39:53;16.60;57.40
3017;DHT22;1518;52.408;13.060;2023-03-08T04:42:41;16.70;56.10
3017;DHT22;1518;52.408;13.060;2023-03-08T04:45:30;16.70;56.00
3017;DHT22;1518;52.408;13.060;2023-03-08T04:48:18;16.70;56.00
3017;DHT22;1518;52.408;13.060;2023-03-08T04:51:07;16.60;55.80
3017;DHT22;1518;52.408;13.060;2023-03-08T04:53:55;16.60;55.90
3017;DHT22;1518;52.408;13.060;2023-03-08T04:56:45;16.60;55.70
3017;DHT22;1518;52.408;13.060;2023-03-08T04:59:33;16.50;56.10
3017;DHT22;1518;52.408;13.060;2023-03-08T05:02:22;16.50;56.00
3017;DHT22;1518;52.408;13.060;2023-03-08T05:05:10;16.50;56.00
3017;DHT22;1518;52.408;13.060;2023-03-08T05:07:59;16.40;56.00
3017;DHT22;1518;52.408;13.060;2023-03-08T05:10:55;16.40;56.20
3017;DHT22;1518;52.408;13.060;2023-03-08T05:13:48;16.30;56.40
3017;DHT22;1518;52.408;13.060;2023-03-08T05:16:36;16.20;58.10
3017;DHT22;1518;52.408;13.060;2023-03-08T05:19:24;16.30;57.90
3017;DHT22;1518;52.408;13.060;2023-03-08T05:22:12;16.30;57.80
3017;DHT22;1518;52.408;13.060;2023-03-08T05:25:00;16.30;58.40
3017;DHT22;1518;52.408;13.060;2023-03-08T05:27:48;16.30;57.80
3017;DHT22;1518;52.408;13.060;2023-03-08T05:30:38;16.30;57.70
3017;DHT22;1518;52.408;13.060;2023-03-08T05:33:26;16.40;57.70
3017;DHT22;1518;52.408;13.060;2023-03-08T05:36:14;16.40;73.90
3017;DHT22;1518;52.408;13.060;2023-03-08T05:39:02;16.50;57.60
3017;DHT22;1518;52.408;13.060;2023-03-08T05:41:52;16.50;57.20
3017;DHT22;1518;52.408;13.060;2023-03-08T05:44:40;16.50;56.80
3017;DHT22;1518;52.408;13.060;2023-03-08T05:47:30;16.60;56.90
3017;DHT22;1518;52.408;13.060;2023-03-08T05:50:18;16.70;56.60
3017;DHT22;1518;52.408;13.060;2023-03-08T05:53:06;16.70;56.00
3017;DHT22;1518;52.408;13.060;2023-03-08T05:55:54;16.70;55.60
3017;DHT22;1518;52.408;13.060;2023-03-08T05:58:42;16.70;55.70
3017;DHT22;1518;52.408;13.060;2023-03-08T06:01:33;16.70;55.70
3017;DHT22;1518;52.408;13.060;2023-03-08T06:04:23;16.70;55.70
3017;DHT22;1518;52.408;13.060;2023-03-08T06:07:11;16.70;55.70
3017;DHT22;1518;52.408;13.060;2023-03-08T06:09:59;16.60;55.60
3017;DHT22;1518;52.408;13.060;2023-03-08T06:12:47;16.60;55.80
3017;DHT22;1518;52.408;13.060;2023-03-08T06:15:35;16.60;56.00
3017;DHT22;1518;52.408;13.060;2023-03-08T06:18:24;16.50;55.80
3017;DHT22;1518;52.408;13.060;2023-03-08T06:21:15;16.50;55.70
3017;DHT22;1518;52.408;13.060;2023-03-08T06:24:04;16.40;56.00
3017;DHT22;1518;52.408;13.060;2023-03-08T06:26:52;16.30;56.00
3017;DHT22;1518;52.408;13.060;2023-03-08T06:29:41;16.30;56.80
3017;DHT22;1518;52.408;13.060;2023-03-08T06:32:29;16.30;57.60
3017;DHT22;1518;52.408;13.060;2023-03-08T06:35:17;16.30;57.70
3017;DHT22;1518;52.408;13.060;2023-03-08T06:38:07;16.30;57.80
3017;DHT22;1518;52.408;13.060;2023-03-08T06:40:55;16.40;57.90
3017;DHT22;1518;52.408;13.060;2023-03-08T06:43:43;16.40;57.90
3017;DHT22;1518;52.408;13.060;2023-03-08T06:46:31;16.50;57.80
3017;DHT22;1518;52.408;13.060;2023-03-08T06:49:19;16.60;57.80
3017;DHT22;1518;52.408;13.060;2023-03-08T06:52:08;16.70;57.90
3017;DHT22;1518;52.408;13.060;2023-03-08T06:54:57;16.70;57.50
3017;DHT22;1518;52.408;13.060;2023-03-08T06:57:45;16.80;57.50
3017;DHT22;1518;52.408;13.060;2023-03-08T07:00:34;16.80;57.40
3017;DHT22;1518;52.408;13.060;2023-03-08T07:03:22;16.80;57.30
3017;DHT22;1518;52.408;13.060;2023-03-08T07:06:10;16.80;73.10
3017;DHT22;1518;52.408;13.060;2023-03-08T07:08:58;16.90;56.90
3017;DHT22;1518;52.408;13.060;2023-03-08T07:11:48;16.90;57.50
3017;DHT22;1518;52.408;13.060;2023-03-08T07:14:36;16.90;57.50
3017;DHT22;1518;52.408;13.060;2023-03-08T07:17:24;17.00;57.70
3017;DHT22;1518;52.408;13.060;2023-03-08T07:20:15;17.10;57.80
3017;DHT22;1518;52.408;13.060;2023-03-08T07:23:03;17.30;57.80
3017;DHT22;1518;52.408;13.060;2023-03-08T07:25:51;17.50;57.70
3017;DHT22;1518;52.408;13.060;2023-03-08T07:28:41;17.70;57.60
3017;DHT22;1518;52.408;13.060;2023-03-08T07:31:29;17.90;57.50
3017;DHT22;1518;52.408;13.060;2023-03-08T07:34:18;18.10;57.20
3017;DHT22;1518;52.408;13.060;2023-03-08T07:37:10;18.30;57.00
3017;DHT22;1518;52.408;13.060;2023-03-08T07:39:59;18.50;56.90
3017;DHT22;1518;52.408;13.060;2023-03-08T07:42:47;18.60;56.70
3017;DHT22;1518;52.408;13.060;2023-03-08T07:45:37;18.80;56.70
3017;DHT22;1518;52.408;13.060;2023-03-08T07:48:26;18.80;56.60
3017;DHT22;1518;52.408;13.060;2023-03-08T07:51:14;18.90;56.50
3017;DHT22;1518;52.408;13.060;2023-03-08T07:54:02;19.00;56.70
3017;DHT22;1518;52.408;13.060;2023-03-08T07:56:51;19.60;57.10
3017;DHT22;1518;52.408;13.060;2023-03-08T07:59:39;19.20;56.60
3017;DHT22;1518;52.408;13.060;2023-03-08T08:02:29;19.30;56.60
3017;DHT22;1518;52.408;13.060;2023-03-08T08:05:18;19.40;56.40
3017;DHT22;1518;52.408;13.060;2023-03-08T08:08:07;19.50;56.50
3017;DHT22;1518;52.408;13.060;2023-03-08T08:10:56;19.60;56.20
3017;DHT22;1518;52.408;13.060;2023-03-08T08:13:44;19.70;56.10
3017;DHT22;1518;52.408;13.060;2023-03-08T08:16:33;19.80;56.00
3017;DHT22;1518;52.408;13.060;2023-03-08T08:19:23;19.90;55.90
3017;DHT22;1518;52.408;13.060;2023-03-08T08:22:11;20.00;55.90
3017;DHT22;1518;52.408;13.060;2023-03-08T08:24:59;20.00;55.80
3017;DHT22;1518;52.408;13.060;2023-03-08T08:27:47;20.10;55.70
3017;DHT22;1518;52.408;13.060;2023-03-08T08:30:36;20.10;55.60
3017;DHT22;1518;52.408;13.060;2023-03-08T08:33:24;20.20;55.50
3017;DHT22;1518;52.408;13.060;2023-03-08T08:36:15;20.20;70.10
3017;DHT22;1518;52.408;13.060;2023-03-08T08:39:03;20.30;55.30
3017;DHT22;1518;52.408;13.060;2023-03-08T08:41:51;20.40;55.50
3017;DHT22;1518;52.408;13.060;2023-03-08T08:44:39;20.40;55.40
3017;DHT22;1518;52.408;13.060;2023-03-08T08:47:28;20.50;54.80
3017;DHT22;1518;52.408;13.060;2023-03-08T08:50:16;20.50;55.30
3017;DHT22;1518;52.408;13.060;2023-03-08T08:53:06;20.50;55.30
3017;DHT22;1518;52.408;13.060;2023-03-08T08:55:54;20.50;68.30
3017;DHT22;1518;52.408;13.060;2023-03-08T08:58:42;20.60;55.20
3017;DHT22;1518;52.408;13.060;2023-03-08T09:01:31;20.60;55.00
3017;DHT22;1518;52.408;13.060;2023-03-08T09:04:21;20.70;55.10
3017;DHT22;1518;52.408;13.060;2023-03-08T09:07:09;20.70;55.10
3017;DHT22;1518;52.408;13.060;2023-03-08T09:09:59;20.70;55.10
3017;DHT22;1518;52.408;13.060;2023-03-08T09:12:47;20.70;55.10
3017;DHT22;1518;52.408;13.060;2023-03-08T09:15:35;20.90;54.90
3017;DHT22;1518;52.408;13.060;2023-03-08T09:18:23;20.70;54.80
3017;DHT22;1518;52.408;13.060;2023-03-08T09:21:12;20.70;54.90
3017;DHT22;1518;52.408;13.060;2023-03-08T09:24:03;20.70;54.90
3017;DHT22;1518;52.408;13.060;2023-03-08T09:26:52;20.70;54.90
3017;DHT22;1518;52.408;13.060;2023-03-08T09:29:41;20.80;54.90
3017;DHT22;1518;52.408;13.060;2023-03-08T09:32:31;20.80;54.40
3017;DHT22;1518;52.408;13.060;2023-03-08T09:35:20;20.80;54.90
3017;DHT22;1518;52.408;13.060;2023-03-08T09:38:08;20.90;54.60
3017;DHT22;1518;52.408;13.060;2023-03-08T09:41:05;21.00;54.60
3017;DHT22;1518;52.408;13.060;2023-03-08T09:44:11;21.00;54.50
3017;DHT22;1518;52.408;13.060;2023-03-08T09:47:05;21.00;54.40
3017;DHT22;1518;52.408;13.060;2023-03-08T09:50:07;21.00;54.30
3017;DHT22;1518;52.408;13.060;2023-03-08T09:52:59;21.10;54.30
3017;DHT22;1518;52.408;13.060;2023-03-08T09:55:54;21.30;67.70
3017;DHT22;1518;52.408;13.060;2023-03-08T09:58:46;21.00;54.30
3017;DHT22;1518;52.408;13.060;2023-03-08T10:01:41;21.00;54.30
3017;DHT22;1518;52.408;13.060;2023-03-08T10:04:41;21.00;54.40
3017;DHT22;1518;52.408;13.060;2023-03-08T10:07:40;21.00;54.40
3017;DHT22;1518;52.408;13.060;2023-03-08T10:10:39;21.00;54.40
3017;DHT22;1518;52.408;13.060;2023-03-08T10:13:31;21.10;54.30
3017;DHT22;1518;52.408;13.060;2023-03-08T10:16:21;21.10;54.30
3017;DHT22;1518;52.408;13.060;2023-03-08T10:19:15;21.10;54.30
3017;DHT22;1518;52.408;13.060;2023-03-08T10:22:08;21.10;54.20
3017;DHT22;1518;52.408;13.060;2023-03-08T10:25:02;21.20;54.20
3017;DHT22;1518;52.408;13.060;2023-03-08T10:27:53;21.20;54.20
3017;DHT22;1518;52.408;13.060;2023-03-08T10:30:44;21.20;54.10
3017;DHT22;1518;52.408;13.060;2023-03-08T10:33:34;21.20;54.00
3017;DHT22;1518;52.408;13.060;2023-03-08T10:36:24;21.20;53.90
3017;DHT22;1518;52.408;13.060;2023-03-08T10:39:12;21.20;53.90
3017;DHT22;1518;52.408;13.060;2023-03-08T10:42:11;21.30;53.90
3017;DHT22;1518;52.408;13.060;2023-03-08T10:45:03;21.30;53.80
3017;DHT22;1518;52.408;13.060;2023-03-08T10:47:57;21.30;54.00
3017;DHT22;1518;52.408;13.060;2023-03-08T10:50:45;21.30;53.60
3017;DHT22;1518;52.408;13.060;2023-03-08T10:53:34;21.30;53.70
3017;DHT22;1518;52.408;13.060;2023-03-08T10:56:25;21.30;53.50
3017;DHT22;1518;52.408;13.060;2023-03-08T10:59:16;21.30;53.60
3017;DHT22;1518;52.408;13.060;2023-03-08T11:02:16;21.30;53.50
3017;DHT22;1518;52.408;13.060;2023-03-08T11:05:17;21.30;53.50
3017;DHT22;1518;52.408;13.060;2023-03-08T11:08:16;21.30;53.70
3017;DHT22;1518;52.408;13.060;2023-03-08T11:11:08;21.30;53.90
3017;DHT22;1518;52.408;13.060;2023-03-08T11:13:57;21.30;54.00
3017;DHT22;1518;52.408;13.060;2023-03-08T11:16:54;21.40;54.00
3017;DHT22;1518;52.408;13.060;2023-03-08T11:19:52;21.40;54.00
3017;DHT22;1518;52.408;13.060;2023-03-08T11:22:57;21.40;53.90
3017;DHT22;1518;52.408;13.060;2023-03-08T11:25:54;21.40;53.80
3017;DHT22;1518;52.408;13.060;2023-03-08T11:28:54;21.40;53.80
3017;DHT22;1518;52.408;13.060;2023-03-08T11:31:54;21.40;53.70
3017;DHT22;1518;52.408;13.060;2023-03-08T11:34:54;21.30;53.70
3017;DHT22;1518;52.408;13.060;2023-03-08T11:37:47;21.30;53.80
3017;DHT22;1518;52.408;13.060;2023-03-08T11:40:49;21.30;53.80
3017;DHT22;1518;52.408;13.060;2023-03-08T11:43:55;21.30;54.50
3017;DHT22;1518;52.408;13.060;2023-03-08T11:46:57;21.30;53.80
3017;DHT22;1518;52.408;13.060;2023-03-08T11:49:54;21.30;53.80
3017;DHT22;1518;52.408;13.060;2023-03-08T11:53:02;21.40;53.80
3017;DHT22;1518;52.408;13.060;2023-03-08T11:56:22;21.30;53.80
3017;DHT22;1518;52.408;13.060;2023-03-08T11:59:19;21.30;53.80
3017;DHT22;1518;52.408;13.060;2023-03-08T12:02:15;21.30;53.80
3017;DHT22;1518;52.408;13.060;2023-03-08T12:05:08;21.30;53.80
3017;DHT22;1518;52.408;13.060;2023-03-08T12:08:00;21.30;53.90
3017;DHT22;1518;52.408;13.060;2023-03-08T12:10:53;21.30;53.80
3017;DHT22;1518;52.408;13.060;2023-03-08T12:13:45;21.40;53.80
3017;DHT22;1518;52.408;13.060;2023-03-08T12:16:39;21.40;53.70
3017;DHT22;1518;52.408;13.060;2023-03-08T12:19:35;21.40;53.70
3017;DHT22;1518;52.408;13.060;2023-03-08T12:22:34;21.50;53.70
3017;DHT22;1518;52.408;13.060;2023-03-08T12:25:28;21.50;53.60
3017;DHT22;1518;52.408;13.060;2023-03-08T12:28:20;21.50;53.60
3017;DHT22;1518;52.408;13.060;2023-03-08T12:31:24;21.50;53.40
3017;DHT22;1518;52.408;13.060;2023-03-08T12:34:26;21.50;53.30
3017;DHT22;1518;52.408;13.060;2023-03-08T12:37:22;21.50;53.30
3017;DHT22;1518;52.408;13.060;2023-03-08T12:40:28;21.50;53.30
3017;DHT22;1518;52.408;13.060;2023-03-08T12:43:28;21.40;53.20
3017;DHT22;1518;52.408;13.060;2023-03-08T12:46:16;21.40;53.40
3017;DHT22;1518;52.408;13.060;2023-03-08T12:49:17;21.40;53.40
3017;DHT22;1518;52.408;13.060;2023-03-08T12:52:23;21.40;53.40
3017;DHT22;1518;52.408;13.060;2023-03-08T12:55:18;21.50;53.30
3017;DHT22;1518;52.408;13.060;2023-03-08T12:58:15;21.50;53.30
3017;DHT22;1518;52.408;13.060;2023-03-08T13:01:05;21.50;53.30
3017;DHT22;1518;52.408;13.060;2023-03-08T13:03:54;21.60;54.10
3017;DHT22;1518;52.408;13.060;2023-03-08T13:07:09;21.60;53.70
3017;DHT22;1518;52.408;13.060;2023-03-08T13:10:05;21.60;53.60
3017;DHT22;1518;52.408;13.060;2023-03-08T13:13:05;21.70;53.60
3017;DHT22;1518;52.408;13.060;2023-03-08T13:16:29;21.70;53.50
3017;DHT22;1518;52.408;13.060;2023-03-08T13:19:23;21.70;53.50
3017;DHT22;1518;52.408;13.060;2023-03-08T13:22:17;21.40;67.10
3017;DHT22;1518;52.408;13.060;2023-03-08T13:25:16;21.70;53.50
3017;DHT22;1518;52.408;13.060;2023-03-08T13:28:09;21.70;53.40
3017;DHT22;1518;52.408;13.060;2023-03-08T13:30:59;21.70;53.30
3017;DHT22;1518;52.408;13.060;2023-03-08T13:33:50;21.70;53.40
3017;DHT22;1518;52.408;13.060;2023-03-08T13:36:38;21.70;53.40
3017;DHT22;1518;52.408;13.060;2023-03-08T13:39:29;21.70;53.40
3017;DHT22;1518;52.408;13.060;2023-03-08T13:42:17;21.70;53.40
3017;DHT22;1518;52.408;13.060;2023-03-08T13:45:16;21.60;53.40
3017;DHT22;1518;52.408;13.060;2023-03-08T13:48:07;21.60;53.40
3017;DHT22;1518;52.408;13.060;2023-03-08T13:50:56;21.60;53.40
3017;DHT22;1518;52.408;13.060;2023-03-08T13:53:45;21.60;53.40
3017;DHT22;1518;52.408;13.060;2023-03-08T13:56:35;21.60;53.50
3017;DHT22;1518;52.408;13.060;2023-03-08T13:59:23;21.50;53.50
3017;DHT22;1518;52.408;13.060;2023-03-08T14:02:20;21.50;53.70
3017;DHT22;1518;52.408;13.060;2023-03-08T14:05:15;21.40;53.70
3017;DHT22;1518;52.408;13.060;2023-03-08T14:08:05;21.40;53.90
3017;DHT22;1518;52.408;13.060;2023-03-08T14:10:57;21.50;53.80
3017;DHT22;1518;52.408;13.060;2023-03-08T14:13:48;21.50;53.80
3017;DHT22;1518;52.408;13.060;2023-03-08T14:16:39;21.60;53.80
3017;DHT22;1518;52.408;13.060;2023-03-08T14:19:30;21.60;53.70
3017;DHT22;1518;52.408;13.060;2023-03-08T14:22:20;21.60;53.70
3017;DHT22;1518;52.408;13.060;2023-03-08T14:25:27;21.70;53.80
3017;DHT22;1518;52.408;13.060;2023-03-08T14:28:36;21.70;53.80
3017;DHT22;1518;52.408;13.060;2023-03-08T14:31:29;21.80;53.70
3017;DHT22;1518;52.408;13.060;2023-03-08T14:34:19;21.80;53.50
3017;DHT22;1518;52.408;13.060;2023-03-08T14:37:16;21.80;53.50
3017;DHT22;1518;52.408;13.060;2023-03-08T14:40:19;21.80;53.40
3017;DHT22;1518;52.408;13.060;2023-03-08T14:43:14;21.80;53.40
3017;DHT22;1518;52.408;13.060;2023-03-08T14:46:04;21.70;66.80
3017;DHT22;1518;52.408;13.060;2023-03-08T14:48:58;21.80;53.40
3017;DHT22;1518;52.408;13.060;2023-03-08T14:51:47;21.80;53.40
3017;DHT22;1518;52.408;13.060;2023-03-08T14:54:35;21.70;53.30
3017;DHT22;1518;52.408;13.060;2023-03-08T14:57:26;21.70;53.40
3017;DHT22;1518;52.408;13.060;2023-03-08T15:00:15;21.70;53.50
3017;DHT22;1518;52.408;13.060;2023-03-08T15:03:04;21.60;53.20
3017;DHT22;1518;52.408;13.060;2023-03-08T15:05:54;21.90;67.20
3017;DHT22;1518;52.408;13.060;2023-03-08T15:08:43;21.60;53.50
3017;DHT22;1518;52.408;13.060;2023-03-08T15:11:31;21.60;53.50
3017;DHT22;1518;52.408;13.060;2023-03-08T15:14:19;21.70;53.60
3017;DHT22;1518;52.408;13.060;2023-03-08T15:17:07;21.70;53.60
3017;DHT22;1518;52.408;13.060;2023-03-08T15:19:55;21.60;53.50
3017;DHT22;1518;52.408;13.060;2023-03-08T15:22:47;21.70;53.60
3017;DHT22;1518;52.408;13.060;2023-03-08T15:25:36;21.70;53.60
3017;DHT22;1518;52.408;13.060;2023-03-08T15:28:25;21.70;53.50
3017;DHT22;1518;52.408;13.060;2023-03-08T15:31:13;21.70;54.10
3017;DHT22;1518;52.408;13.060;2023-03-08T15:34:01;21.80;53.50
3017;DHT22;1518;52.408;13.060;2023-03-08T15:36:51;21.80;53.50
3017;DHT22;1518;52.408;13.060;2023-03-08T15:39:40;21.80;53.50
3017;DHT22;1518;52.408;13.060;2023-03-08T15:42:29;21.80;53.50
3017;DHT22;1518;52.408;13.060;2023-03-08T15:45:17;21.80;53.50
3017;DHT22;1518;52.408;13.060;2023-03-08T15:48:08;21.80;53.50
3017;DHT22;1518;52.408;13.060;2023-03-08T15:50:58;21.80;53.50
3017;DHT22;1518;52.408;13.060;2023-03-08T15:53:47;21.70;53.30
3017;DHT22;1518;52.408;13.060;2023-03-08T15:56:36;21.70;53.40
3017;DHT22;1518;52.408;13.060;2023-03-08T15:59:24;21.70;53.50
3017;DHT22;1518;52.408;13.060;2023-03-08T16:02:14;21.60;53.40
3017;DHT22;1518;52.408;13.060;2023-03-08T16:05:03;21.50;53.40
3017;DHT22;1518;52.408;13.060;2023-03-08T16:07:52;21.40;53.50
3017;DHT22;1518;52.408;13.060;2023-03-08T16:10:40;21.40;67.70
3017;DHT22;1518;52.408;13.060;2023-03-08T16:13:31;21.30;53.60
3017;DHT22;1518;52.408;13.060;2023-03-08T16:16:19;21.20;53.70
3017;DHT22;1518;52.408;13.060;2023-03-08T16:19:18;21.10;53.70
3017;DHT22;1518;52.408;13.060;2023-03-08T16:22:06;21.00;53.80
3017;DHT22;1518;52.408;13.060;2023-03-08T16:24:54;20.90;53.80
3017;DHT22;1518;52.408;13.060;2023-03-08T16:27:42;20.80;53.80
3017;DHT22;1518;52.408;13.060;2023-03-08T16:30:31;20.40;67.80
3017;DHT22;1518;52.408;13.060;2023-03-08T16:33:20;20.60;53.90
3017;DHT22;1518;52.408;13.060;2023-03-08T16:36:09;20.50;53.70
3017;DHT22;1518;52.408;13.060;2023-03-08T16:38:58;20.50;53.60
3017;DHT22;1518;52.408;13.060;2023-03-08T16:41:46;20.50;53.50
3017;DHT22;1518;52.408;13.060;2023-03-08T16:44:35;20.40;53.50
3017;DHT22;1518;52.408;13.060;2023-03-08T16:47:24;20.30;53.50
3017;DHT22;1518;52.408;13.060;2023-03-08T16:50:13;20.20;53.70
3017;DHT22;1518;52.408;13.060;2023-03-08T16:53:01;20.10;53.90
3017;DHT22;1518;52.408;13.060;2023-03-08T16:55:49;20.00;53.80
3017;DHT22;1518;52.408;13.060;2023-03-08T16:58:38;19.90;53.70
3017;DHT22;1518;52.408;13.060;2023-03-08T17:01:27;19.80;54.10
3017;DHT22;1518;52.408;13.060;2023-03-08T17:04:16;19.70;54.30
3017;DHT22;1518;52.408;13.060;2023-03-08T17:07:05;19.50;54.20
3017;DHT22;1518;52.408;13.060;2023-03-08T17:09:54;19.40;54.30
3017;DHT22;1518;52.408;13.060;2023-03-08T17:12:42;19.30;54.40
3017;DHT22;1518;52.408;13.060;2023-03-08T17:15:30;19.20;54.60
3017;DHT22;1518;52.408;13.060;2023-03-08T17:18:24;19.10;54.70
3017;DHT22;1518;52.408;13.060;2023-03-08T17:21:14;19.00;55.00
3017;DHT22;1518;52.408;13.060;2023-03-08T17:24:02;18.90;54.80
3017;DHT22;1518;52.408;13.060;2023-03-08T17:26:53;18.80;55.10
3017;DHT22;1518;52.408;13.060;2023-03-08T17:29:41;18.70;55.20
3017;DHT22;1518;52.408;13.060;2023-03-08T17:32:29;18.60;55.30
3017;DHT22;1518;52.408;13.060;2023-03-08T17:35:18;18.50;55.50
3017;DHT22;1518;52.408;13.060;2023-03-08T17:38:07;18.40;55.50
3017;DHT22;1518;52.408;13.060;2023-03-08T17:40:55;18.30;55.70
3017;DHT22;1518;52.408;13.060;2023-03-08T17:43:43;18.30;55.80
3017;DHT22;1518;52.408;13.060;2023-03-08T17:46:31;18.10;55.70
3017;DHT22;1518;52.408;13.060;2023-03-08T17:49:19;18.10;55.80
3017;DHT22;1518;52.408;13.060;2023-03-08T17:52:10;18.00;56.00
3017;DHT22;1518;52.408;13.060;2023-03-08T17:55:00;17.90;56.00
3017;DHT22;1518;52.408;13.060;2023-03-08T17:57:48;17.90;56.30
3017;DHT22;1518;52.408;13.060;2023-03-08T18:00:36;17.60;70.60
3017;DHT22;1518;52.408;13.060;2023-03-08T18:03:24;17.70;56.40
3017;DHT22;1518;52.408;13.060;2023-03-08T18:06:17;17.70;56.50
3017;DHT22;1518;52.408;13.060;2023-03-08T18:09:07;17.60;56.60
3017;DHT22;1518;52.408;13.060;2023-03-08T18:11:57;17.50;56.70
3017;DHT22;1518;52.408;13.060;2023-03-08T18:14:45;17.50;56.80
3017;DHT22;1518;52.408;13.060;2023-03-08T18:17:38;17.50;56.80